Sofia, Bulgaria
Current Conditions -  °F | °C
As of 1:00 AM on Tuesday 23 Dec 2014 (Local Time) from LBSF Reporting Station
Clear Clear  
Wind Chill: 30°   Ceiling: Unl
Heat Index: 30°   Visibility: 4mi
Dew Point: 25°   Wind: 2mph
Humidity: 80%   Direction: NA
Pressure: 30.24"   Gusts: NA
Location:  42.69°N, 23.31°E
Report Text: LBSF 222200Z VRB02KT 7000 NSC M01/M04 Q1024 NOSIG
Loading
Personal Weather Stations






























Interactive Weather Map New forecast layout! Learn more

10-Day Weather Forecast

Advertisements
Track Severe Weather on mobile